sensor_id;sensor_type;location;lat;lon;timestamp;P1;durP1;ratioP1;P2;durP2;ratioP2
81591;SDS011;71014;53.394;6.724;2023-11-21T00:00:35;12.15;;;3.22;;
81591;SDS011;71014;53.394;6.724;2023-11-21T00:03:01;8.55;;;2.97;;
81591;SDS011;71014;53.394;6.724;2023-11-21T00:05:27;12.10;;;3.40;;
81591;SDS011;71014;53.394;6.724;2023-11-21T00:07:53;11.35;;;3.10;;
81591;SDS011;71014;53.394;6.724;2023-11-21T00:10:19;6.28;;;2.50;;
81591;SDS011;71014;53.394;6.724;2023-11-21T00:12:45;11.18;;;3.53;;
81591;SDS011;71014;53.394;6.724;2023-11-21T00:15:13;10.95;;;2.63;;
81591;SDS011;71014;53.394;6.724;2023-11-21T00:17:39;12.70;;;3.83;;
81591;SDS011;71014;53.394;6.724;2023-11-21T00:20:06;7.82;;;2.67;;
81591;SDS011;71014;53.394;6.724;2023-11-21T00:22:35;16.27;;;3.50;;
81591;SDS011;71014;53.394;6.724;2023-11-21T00:25:01;12.73;;;3.38;;
81591;SDS011;71014;53.394;6.724;2023-11-21T00:27:29;14.52;;;3.33;;
81591;SDS011;71014;53.394;6.724;2023-11-21T00:29:55;15.20;;;2.95;;
81591;SDS011;71014;53.394;6.724;2023-11-21T00:32:21;13.98;;;3.78;;
81591;SDS011;71014;53.394;6.724;2023-11-21T00:34:47;11.30;;;3.67;;
81591;SDS011;71014;53.394;6.724;2023-11-21T00:37:14;13.73;;;3.08;;
81591;SDS011;71014;53.394;6.724;2023-11-21T00:42:06;13.45;;;3.08;;
81591;SDS011;71014;53.394;6.724;2023-11-21T00:44:33;8.65;;;3.08;;
81591;SDS011;71014;53.394;6.724;2023-11-21T00:46:59;14.98;;;3.60;;
81591;SDS011;71014;53.394;6.724;2023-11-21T00:49:25;12.32;;;3.60;;
81591;SDS011;71014;53.394;6.724;2023-11-21T00:51:53;11.35;;;3.20;;
81591;SDS011;71014;53.394;6.724;2023-11-21T00:54:19;10.02;;;2.90;;
81591;SDS011;71014;53.394;6.724;2023-11-21T00:56:45;15.70;;;3.13;;
81591;SDS011;71014;53.394;6.724;2023-11-21T00:59:13;10.13;;;3.65;;
81591;SDS011;71014;53.394;6.724;2023-11-21T01:01:39;12.00;;;3.55;;
81591;SDS011;71014;53.394;6.724;2023-11-21T01:04:05;9.88;;;3.33;;
81591;SDS011;71014;53.394;6.724;2023-11-21T01:06:34;10.18;;;3.40;;
81591;SDS011;71014;53.394;6.724;2023-11-21T01:09:00;8.32;;;2.83;;
81591;SDS011;71014;53.394;6.724;2023-11-21T01:11:27;11.77;;;3.28;;
81591;SDS011;71014;53.394;6.724;2023-11-21T01:13:53;11.65;;;4.20;;
81591;SDS011;71014;53.394;6.724;2023-11-21T01:16:19;9.00;;;3.42;;
81591;SDS011;71014;53.394;6.724;2023-11-21T01:18:45;7.57;;;2.88;;
81591;SDS011;71014;53.394;6.724;2023-11-21T01:21:11;16.30;;;4.60;;
81591;SDS011;71014;53.394;6.724;2023-11-21T01:23:37;13.20;;;3.58;;
81591;SDS011;71014;53.394;6.724;2023-11-21T01:26:03;12.20;;;3.67;;
81591;SDS011;71014;53.394;6.724;2023-11-21T01:28:29;15.40;;;3.90;;
81591;SDS011;71014;53.394;6.724;2023-11-21T01:30:55;9.27;;;2.50;;
81591;SDS011;71014;53.394;6.724;2023-11-21T01:33:22;11.23;;;2.90;;
81591;SDS011;71014;53.394;6.724;2023-11-21T01:35:50;10.98;;;3.30;;
81591;SDS011;71014;53.394;6.724;2023-11-21T01:38:16;12.25;;;3.63;;
81591;SDS011;71014;53.394;6.724;2023-11-21T01:40:42;12.25;;;3.13;;
81591;SDS011;71014;53.394;6.724;2023-11-21T01:43:08;13.32;;;4.05;;
81591;SDS011;71014;53.394;6.724;2023-11-21T01:45:34;15.18;;;4.85;;
81591;SDS011;71014;53.394;6.724;2023-11-21T01:48:00;12.98;;;2.83;;
81591;SDS011;71014;53.394;6.724;2023-11-21T01:50:28;9.95;;;3.90;;
81591;SDS011;71014;53.394;6.724;2023-11-21T01:52:54;9.82;;;3.55;;
81591;SDS011;71014;53.394;6.724;2023-11-21T01:55:20;9.73;;;4.20;;
81591;SDS011;71014;53.394;6.724;2023-11-21T01:57:46;19.83;;;4.25;;
81591;SDS011;71014;53.394;6.724;2023-11-21T02:00:13;11.77;;;4.00;;
81591;SDS011;71014;53.394;6.724;2023-11-21T02:02:47;10.07;;;3.97;;
81591;SDS011;71014;53.394;6.724;2023-11-21T02:05:17;17.58;;;4.53;;
81591;SDS011;71014;53.394;6.724;2023-11-21T02:07:43;13.88;;;4.78;;
81591;SDS011;71014;53.394;6.724;2023-11-21T02:10:10;12.45;;;4.00;;
81591;SDS011;71014;53.394;6.724;2023-11-21T02:12:39;12.75;;;4.00;;
81591;SDS011;71014;53.394;6.724;2023-11-21T02:15:05;14.48;;;4.57;;
81591;SDS011;71014;53.394;6.724;2023-11-21T02:17:39;8.20;;;3.08;;
81591;SDS011;71014;53.394;6.724;2023-11-21T02:20:06;16.20;;;6.13;;
81591;SDS011;71014;53.394;6.724;2023-11-21T02:22:32;12.32;;;4.05;;
81591;SDS011;71014;53.394;6.724;2023-11-21T02:25:00;11.15;;;3.85;;
81591;SDS011;71014;53.394;6.724;2023-11-21T02:27:27;15.95;;;4.85;;
81591;SDS011;71014;53.394;6.724;2023-11-21T02:29:53;15.55;;;4.13;;
81591;SDS011;71014;53.394;6.724;2023-11-21T02:32:19;18.77;;;5.28;;
81591;SDS011;71014;53.394;6.724;2023-11-21T02:34:47;12.75;;;4.22;;
81591;SDS011;71014;53.394;6.724;2023-11-21T02:39:40;15.27;;;4.05;;
81591;SDS011;71014;53.394;6.724;2023-11-21T02:42:06;10.95;;;4.25;;
81591;SDS011;71014;53.394;6.724;2023-11-21T02:44:32;15.45;;;4.80;;
81591;SDS011;71014;53.394;6.724;2023-11-21T02:46:59;11.25;;;5.18;;
81591;SDS011;71014;53.394;6.724;2023-11-21T02:49:25;16.58;;;5.63;;
81591;SDS011;71014;53.394;6.724;2023-11-21T02:51:53;9.07;;;4.43;;
81591;SDS011;71014;53.394;6.724;2023-11-21T02:54:20;17.23;;;5.50;;
81591;SDS011;71014;53.394;6.724;2023-11-21T02:56:47;12.07;;;4.07;;
81591;SDS011;71014;53.394;6.724;2023-11-21T02:59:14;11.88;;;4.28;;
81591;SDS011;71014;53.394;6.724;2023-11-21T03:01:40;16.17;;;4.45;;
81591;SDS011;71014;53.394;6.724;2023-11-21T03:04:06;15.25;;;5.28;;
81591;SDS011;71014;53.394;6.724;2023-11-21T03:06:32;14.68;;;4.68;;
81591;SDS011;71014;53.394;6.724;2023-11-21T03:08:58;13.50;;;4.40;;
81591;SDS011;71014;53.394;6.724;2023-11-21T03:11:25;20.92;;;4.95;;
81591;SDS011;71014;53.394;6.724;2023-11-21T03:13:51;12.95;;;4.97;;
81591;SDS011;71014;53.394;6.724;2023-11-21T03:16:18;15.93;;;5.15;;
81591;SDS011;71014;53.394;6.724;2023-11-21T03:18:44;16.25;;;4.63;;
81591;SDS011;71014;53.394;6.724;2023-11-21T03:21:11;16.70;;;5.50;;
81591;SDS011;71014;53.394;6.724;2023-11-21T03:23:38;15.15;;;4.78;;
81591;SDS011;71014;53.394;6.724;2023-11-21T03:26:04;17.13;;;5.47;;
81591;SDS011;71014;53.394;6.724;2023-11-21T03:28:33;24.70;;;5.30;;
81591;SDS011;71014;53.394;6.724;2023-11-21T03:30:59;18.50;;;4.82;;
81591;SDS011;71014;53.394;6.724;2023-11-21T03:33:25;20.75;;;5.47;;
81591;SDS011;71014;53.394;6.724;2023-11-21T03:35:51;18.45;;;4.95;;
81591;SDS011;71014;53.394;6.724;2023-11-21T03:38:18;17.80;;;4.80;;
81591;SDS011;71014;53.394;6.724;2023-11-21T03:40:44;18.13;;;4.95;;
81591;SDS011;71014;53.394;6.724;2023-11-21T03:43:10;23.60;;;5.97;;
81591;SDS011;71014;53.394;6.724;2023-11-21T03:45:36;34.92;;;6.80;;
81591;SDS011;71014;53.394;6.724;2023-11-21T03:48:02;25.58;;;5.95;;
81591;SDS011;71014;53.394;6.724;2023-11-21T03:50:28;21.02;;;5.70;;
81591;SDS011;71014;53.394;6.724;2023-11-21T03:52:54;31.80;;;7.75;;
81591;SDS011;71014;53.394;6.724;2023-11-21T03:55:20;29.92;;;7.07;;
81591;SDS011;71014;53.394;6.724;2023-11-21T03:57:48;30.90;;;7.35;;
81591;SDS011;71014;53.394;6.724;2023-11-21T04:00:14;36.55;;;9.50;;
81591;SDS011;71014;53.394;6.724;2023-11-21T04:02:41;30.10;;;8.15;;
81591;SDS011;71014;53.394;6.724;2023-11-21T04:05:07;33.55;;;8.88;;
81591;SDS011;71014;53.394;6.724;2023-11-21T04:07:34;27.48;;;8.40;;
81591;SDS011;71014;53.394;6.724;2023-11-21T04:10:00;27.55;;;9.00;;
81591;SDS011;71014;53.394;6.724;2023-11-21T04:12:26;29.98;;;8.70;;
81591;SDS011;71014;53.394;6.724;2023-11-21T04:14:52;35.05;;;10.90;;
81591;SDS011;71014;53.394;6.724;2023-11-21T04:17:18;37.00;;;8.48;;
81591;SDS011;71014;53.394;6.724;2023-11-21T04:19:45;32.75;;;9.38;;
81591;SDS011;71014;53.394;6.724;2023-11-21T04:22:11;33.85;;;8.30;;
81591;SDS011;71014;53.394;6.724;2023-11-21T04:24:37;28.05;;;7.35;;
81591;SDS011;71014;53.394;6.724;2023-11-21T04:27:03;33.28;;;7.80;;
81591;SDS011;71014;53.394;6.724;2023-11-21T04:29:29;32.97;;;8.02;;
81591;SDS011;71014;53.394;6.724;2023-11-21T04:31:55;25.48;;;7.50;;
81591;SDS011;71014;53.394;6.724;2023-11-21T04:34:21;16.73;;;6.38;;
81591;SDS011;71014;53.394;6.724;2023-11-21T04:36:47;20.35;;;7.32;;
81591;SDS011;71014;53.394;6.724;2023-11-21T04:39:13;15.40;;;6.35;;
81591;SDS011;71014;53.394;6.724;2023-11-21T04:41:39;14.85;;;6.32;;
81591;SDS011;71014;53.394;6.724;2023-11-21T04:44:05;18.25;;;5.53;;
81591;SDS011;71014;53.394;6.724;2023-11-21T04:46:31;15.68;;;5.75;;
81591;SDS011;71014;53.394;6.724;2023-11-21T04:48:58;16.15;;;6.57;;
81591;SDS011;71014;53.394;6.724;2023-11-21T04:51:24;21.17;;;7.78;;
81591;SDS011;71014;53.394;6.724;2023-11-21T04:53:50;18.60;;;6.80;;
81591;SDS011;71014;53.394;6.724;2023-11-21T04:56:16;15.75;;;7.38;;
81591;SDS011;71014;53.394;6.724;2023-11-21T04:58:42;20.83;;;7.00;;
81591;SDS011;71014;53.394;6.724;2023-11-21T05:01:09;24.25;;;8.45;;
81591;SDS011;71014;53.394;6.724;2023-11-21T05:03:35;21.23;;;7.22;;
81591;SDS011;71014;53.394;6.724;2023-11-21T05:06:03;22.10;;;8.07;;
81591;SDS011;71014;53.394;6.724;2023-11-21T05:08:30;20.75;;;8.15;;
81591;SDS011;71014;53.394;6.724;2023-11-21T05:10:56;19.80;;;9.27;;
81591;SDS011;71014;53.394;6.724;2023-11-21T05:13:22;17.98;;;7.78;;
81591;SDS011;71014;53.394;6.724;2023-11-21T05:15:52;19.85;;;8.27;;
81591;SDS011;71014;53.394;6.724;2023-11-21T05:18:18;27.17;;;9.85;;
81591;SDS011;71014;53.394;6.724;2023-11-21T05:20:44;25.70;;;9.82;;
81591;SDS011;71014;53.394;6.724;2023-11-21T05:23:10;26.67;;;9.90;;
81591;SDS011;71014;53.394;6.724;2023-11-21T05:25:36;25.55;;;10.30;;
81591;SDS011;71014;53.394;6.724;2023-11-21T05:28:02;29.08;;;10.18;;
81591;SDS011;71014;53.394;6.724;2023-11-21T05:30:29;31.67;;;10.25;;
81591;SDS011;71014;53.394;6.724;2023-11-21T05:32:55;26.58;;;9.93;;
81591;SDS011;71014;53.394;6.724;2023-11-21T05:35:21;24.17;;;8.98;;
81591;SDS011;71014;53.394;6.724;2023-11-21T05:37:47;28.77;;;9.88;;
81591;SDS011;71014;53.394;6.724;2023-11-21T05:40:13;28.60;;;11.57;;
81591;SDS011;71014;53.394;6.724;2023-11-21T05:42:39;31.67;;;12.23;;
81591;SDS011;71014;53.394;6.724;2023-11-21T05:45:06;25.73;;;10.52;;
81591;SDS011;71014;53.394;6.724;2023-11-21T05:47:39;28.50;;;11.23;;
81591;SDS011;71014;53.394;6.724;2023-11-21T05:50:05;26.98;;;11.25;;
81591;SDS011;71014;53.394;6.724;2023-11-21T05:52:34;27.00;;;10.90;;
81591;SDS011;71014;53.394;6.724;2023-11-21T05:55:01;26.02;;;10.73;;
81591;SDS011;71014;53.394;6.724;2023-11-21T05:57:27;19.17;;;8.73;;
81591;SDS011;71014;53.394;6.724;2023-11-21T05:59:53;22.75;;;9.20;;
81591;SDS011;71014;53.394;6.724;2023-11-21T06:02:19;20.75;;;9.45;;
81591;SDS011;71014;53.394;6.724;2023-11-21T06:04:45;18.45;;;9.10;;
81591;SDS011;71014;53.394;6.724;2023-11-21T06:07:11;18.15;;;8.75;;
81591;SDS011;71014;53.394;6.724;2023-11-21T06:09:37;20.30;;;8.93;;
81591;SDS011;71014;53.394;6.724;2023-11-21T06:12:03;18.52;;;9.00;;
81591;SDS011;71014;53.394;6.724;2023-11-21T06:14:29;19.30;;;8.57;;
81591;SDS011;71014;53.394;6.724;2023-11-21T06:16:55;16.70;;;8.57;;
81591;SDS011;71014;53.394;6.724;2023-11-21T06:19:22;19.70;;;9.90;;
81591;SDS011;71014;53.394;6.724;2023-11-21T06:21:48;19.05;;;9.23;;
81591;SDS011;71014;53.394;6.724;2023-11-21T06:24:14;20.55;;;9.65;;
81591;SDS011;71014;53.394;6.724;2023-11-21T06:26:40;22.05;;;9.32;;
81591;SDS011;71014;53.394;6.724;2023-11-21T06:29:06;20.85;;;10.38;;
81591;SDS011;71014;53.394;6.724;2023-11-21T06:31:32;20.27;;;10.02;;
81591;SDS011;71014;53.394;6.724;2023-11-21T06:33:58;19.30;;;10.23;;
81591;SDS011;71014;53.394;6.724;2023-11-21T06:36:28;20.40;;;10.30;;
81591;SDS011;71014;53.394;6.724;2023-11-21T06:38:54;22.20;;;10.48;;
81591;SDS011;71014;53.394;6.724;2023-11-21T06:41:20;18.13;;;9.63;;
81591;SDS011;71014;53.394;6.724;2023-11-21T06:43:46;21.90;;;10.93;;
81591;SDS011;71014;53.394;6.724;2023-11-21T06:46:13;22.98;;;9.50;;
81591;SDS011;71014;53.394;6.724;2023-11-21T06:48:42;20.95;;;10.05;;
81591;SDS011;71014;53.394;6.724;2023-11-21T06:51:08;18.88;;;9.27;;
81591;SDS011;71014;53.394;6.724;2023-11-21T06:53:34;19.23;;;8.95;;
81591;SDS011;71014;53.394;6.724;2023-11-21T06:56:01;23.27;;;10.02;;
81591;SDS011;71014;53.394;6.724;2023-11-21T06:58:27;23.40;;;10.00;;
81591;SDS011;71014;53.394;6.724;2023-11-21T07:00:53;22.60;;;10.25;;
81591;SDS011;71014;53.394;6.724;2023-11-21T07:03:20;21.55;;;11.15;;
81591;SDS011;71014;53.394;6.724;2023-11-21T07:05:46;25.65;;;11.18;;
81591;SDS011;71014;53.394;6.724;2023-11-21T07:08:12;22.20;;;10.60;;
81591;SDS011;71014;53.394;6.724;2023-11-21T07:10:38;22.63;;;11.65;;
81591;SDS011;71014;53.394;6.724;2023-11-21T07:13:04;21.27;;;9.98;;
81591;SDS011;71014;53.394;6.724;2023-11-21T07:15:30;23.70;;;11.00;;
81591;SDS011;71014;53.394;6.724;2023-11-21T07:17:56;20.52;;;9.65;;
81591;SDS011;71014;53.394;6.724;2023-11-21T07:20:22;20.48;;;10.85;;
81591;SDS011;71014;53.394;6.724;2023-11-21T07:22:48;20.15;;;10.15;;
81591;SDS011;71014;53.394;6.724;2023-11-21T07:25:14;19.38;;;9.57;;
81591;SDS011;71014;53.394;6.724;2023-11-21T07:27:41;20.30;;;10.18;;
81591;SDS011;71014;53.394;6.724;2023-11-21T07:30:07;18.60;;;10.38;;
81591;SDS011;71014;53.394;6.724;2023-11-21T07:32:34;15.85;;;9.57;;
81591;SDS011;71014;53.394;6.724;2023-11-21T07:35:01;18.17;;;9.18;;
81591;SDS011;71014;53.394;6.724;2023-11-21T07:37:27;14.15;;;8.68;;
81591;SDS011;71014;53.394;6.724;2023-11-21T07:39:53;16.17;;;9.40;;
81591;SDS011;71014;53.394;6.724;2023-11-21T07:42:22;16.55;;;8.60;;
81591;SDS011;71014;53.394;6.724;2023-11-21T07:44:48;13.02;;;7.47;;
81591;SDS011;71014;53.394;6.724;2023-11-21T07:49:41;14.07;;;7.68;;
81591;SDS011;71014;53.394;6.724;2023-11-21T07:52:08;15.60;;;8.27;;
81591;SDS011;71014;53.394;6.724;2023-11-21T07:54:35;13.50;;;8.45;;
81591;SDS011;71014;53.394;6.724;2023-11-21T07:57:01;14.15;;;7.50;;
81591;SDS011;71014;53.394;6.724;2023-11-21T07:59:29;13.05;;;7.10;;
81591;SDS011;71014;53.394;6.724;2023-11-21T08:01:55;12.80;;;7.45;;
81591;SDS011;71014;53.394;6.724;2023-11-21T08:04:21;13.70;;;7.70;;
81591;SDS011;71014;53.394;6.724;2023-11-21T08:06:48;13.10;;;7.75;;
81591;SDS011;71014;53.394;6.724;2023-11-21T08:09:14;14.48;;;7.50;;
81591;SDS011;71014;53.394;6.724;2023-11-21T08:11:42;14.50;;;7.88;;
81591;SDS011;71014;53.394;6.724;2023-11-21T08:14:08;14.80;;;7.97;;
81591;SDS011;71014;53.394;6.724;2023-11-21T08:16:34;12.52;;;7.53;;
81591;SDS011;71014;53.394;6.724;2023-11-21T08:19:00;13.57;;;7.70;;
81591;SDS011;71014;53.394;6.724;2023-11-21T08:21:27;13.85;;;7.85;;
81591;SDS011;71014;53.394;6.724;2023-11-21T08:23:54;13.10;;;8.75;;
81591;SDS011;71014;53.394;6.724;2023-11-21T08:26:20;15.43;;;8.20;;
81591;SDS011;71014;53.394;6.724;2023-11-21T08:28:47;16.80;;;7.38;;
81591;SDS011;71014;53.394;6.724;2023-11-21T08:31:13;13.23;;;7.60;;
81591;SDS011;71014;53.394;6.724;2023-11-21T08:33:39;13.20;;;8.20;;
81591;SDS011;71014;53.394;6.724;2023-11-21T08:36:08;12.75;;;8.02;;
81591;SDS011;71014;53.394;6.724;2023-11-21T08:38:36;16.35;;;8.13;;
81591;SDS011;71014;53.394;6.724;2023-11-21T08:41:04;12.43;;;8.15;;
81591;SDS011;71014;53.394;6.724;2023-11-21T08:43:32;13.55;;;8.13;;
81591;SDS011;71014;53.394;6.724;2023-11-21T08:48:25;10.70;;;6.75;;
81591;SDS011;71014;53.394;6.724;2023-11-21T08:50:53;11.10;;;7.90;;
81591;SDS011;71014;53.394;6.724;2023-11-21T08:53:19;11.55;;;6.90;;
81591;SDS011;71014;53.394;6.724;2023-11-21T08:55:45;10.40;;;6.28;;
81591;SDS011;71014;53.394;6.724;2023-11-21T08:58:11;11.55;;;6.97;;
81591;SDS011;71014;53.394;6.724;2023-11-21T09:00:37;12.10;;;6.60;;
81591;SDS011;71014;53.394;6.724;2023-11-21T09:03:05;11.63;;;7.32;;
81591;SDS011;71014;53.394;6.724;2023-11-21T09:05:33;11.32;;;7.22;;
81591;SDS011;71014;53.394;6.724;2023-11-21T09:07:59;10.38;;;6.78;;
81591;SDS011;71014;53.394;6.724;2023-11-21T09:10:25;10.18;;;6.07;;
81591;SDS011;71014;53.394;6.724;2023-11-21T09:12:53;10.80;;;6.05;;
81591;SDS011;71014;53.394;6.724;2023-11-21T09:15:19;8.23;;;5.30;;
81591;SDS011;71014;53.394;6.724;2023-11-21T09:17:45;9.85;;;5.72;;
81591;SDS011;71014;53.394;6.724;2023-11-21T09:20:11;9.90;;;4.95;;
81591;SDS011;71014;53.394;6.724;2023-11-21T09:22:39;9.52;;;5.38;;
81591;SDS011;71014;53.394;6.724;2023-11-21T09:25:06;7.45;;;5.13;;
81591;SDS011;71014;53.394;6.724;2023-11-21T09:27:33;10.55;;;5.20;;
81591;SDS011;71014;53.394;6.724;2023-11-21T09:30:00;8.38;;;5.18;;
81591;SDS011;71014;53.394;6.724;2023-11-21T09:32:26;9.18;;;5.75;;
81591;SDS011;71014;53.394;6.724;2023-11-21T09:34:53;8.90;;;4.72;;
81591;SDS011;71014;53.394;6.724;2023-11-21T09:37:22;9.43;;;5.43;;
81591;SDS011;71014;53.394;6.724;2023-11-21T09:39:49;9.52;;;5.50;;
81591;SDS011;71014;53.394;6.724;2023-11-21T09:42:17;7.50;;;4.82;;
81591;SDS011;71014;53.394;6.724;2023-11-21T09:47:26;9.98;;;5.20;;
81591;SDS011;71014;53.394;6.724;2023-11-21T09:49:53;9.00;;;4.80;;
81591;SDS011;71014;53.394;6.724;2023-11-21T09:52:26;9.60;;;4.60;;
81591;SDS011;71014;53.394;6.724;2023-11-21T09:54:53;7.25;;;4.68;;
81591;SDS011;71014;53.394;6.724;2023-11-21T09:57:22;7.57;;;4.60;;
81591;SDS011;71014;53.394;6.724;2023-11-21T09:59:52;10.07;;;4.72;;
81591;SDS011;71014;53.394;6.724;2023-11-21T10:02:27;7.93;;;4.40;;
81591;SDS011;71014;53.394;6.724;2023-11-21T10:04:58;6.93;;;4.00;;
81591;SDS011;71014;53.394;6.724;2023-11-21T10:07:25;7.85;;;4.55;;
81591;SDS011;71014;53.394;6.724;2023-11-21T10:12:18;8.88;;;4.53;;
81591;SDS011;71014;53.394;6.724;2023-11-21T10:14:48;9.15;;;4.60;;
81591;SDS011;71014;53.394;6.724;2023-11-21T10:17:14;6.80;;;4.35;;
81591;SDS011;71014;53.394;6.724;2023-11-21T10:19:43;7.28;;;4.35;;
81591;SDS011;71014;53.394;6.724;2023-11-21T10:22:12;7.25;;;4.18;;
81591;SDS011;71014;53.394;6.724;2023-11-21T10:24:39;8.13;;;4.95;;
81591;SDS011;71014;53.394;6.724;2023-11-21T10:27:07;8.85;;;5.47;;
81591;SDS011;71014;53.394;6.724;2023-11-21T10:29:33;6.97;;;4.47;;
81591;SDS011;71014;53.394;6.724;2023-11-21T10:34:26;11.23;;;5.10;;
81591;SDS011;71014;53.394;6.724;2023-11-21T10:36:53;6.53;;;3.78;;
81591;SDS011;71014;53.394;6.724;2023-11-21T10:39:21;6.50;;;4.40;;
81591;SDS011;71014;53.394;6.724;2023-11-21T10:41:49;7.03;;;4.22;;
81591;SDS011;71014;53.394;6.724;2023-11-21T10:44:19;6.93;;;4.70;;
81591;SDS011;71014;53.394;6.724;2023-11-21T10:46:49;7.35;;;3.88;;
81591;SDS011;71014;53.394;6.724;2023-11-21T10:49:18;6.72;;;4.20;;
81591;SDS011;71014;53.394;6.724;2023-11-21T10:51:45;8.93;;;5.07;;
81591;SDS011;71014;53.394;6.724;2023-11-21T10:54:16;6.10;;;4.20;;
81591;SDS011;71014;53.394;6.724;2023-11-21T10:56:42;6.78;;;4.53;;
81591;SDS011;71014;53.394;6.724;2023-11-21T10:59:09;6.78;;;4.57;;
81591;SDS011;71014;53.394;6.724;2023-11-21T11:01:39;7.90;;;4.40;;
81591;SDS011;71014;53.394;6.724;2023-11-21T11:04:06;7.18;;;4.32;;
81591;SDS011;71014;53.394;6.724;2023-11-21T11:06:39;7.47;;;4.75;;
81591;SDS011;71014;53.394;6.724;2023-11-21T11:09:06;7.75;;;4.45;;
81591;SDS011;71014;53.394;6.724;2023-11-21T11:11:33;7.10;;;4.05;;
81591;SDS011;71014;53.394;6.724;2023-11-21T11:14:02;6.65;;;4.70;;
81591;SDS011;71014;53.394;6.724;2023-11-21T11:16:28;7.65;;;4.32;;
81591;SDS011;71014;53.394;6.724;2023-11-21T11:18:55;7.78;;;4.70;;
81591;SDS011;71014;53.394;6.724;2023-11-21T11:33:59;7.15;;;4.47;;
81591;SDS011;71014;53.394;6.724;2023-11-21T11:36:29;10.43;;;5.32;;
81591;SDS011;71014;53.394;6.724;2023-11-21T11:38:57;6.20;;;3.92;;
81591;SDS011;71014;53.394;6.724;2023-11-21T11:41:26;8.38;;;4.38;;
81591;SDS011;71014;53.394;6.724;2023-11-21T11:43:53;5.32;;;4.07;;
81591;SDS011;71014;53.394;6.724;2023-11-21T11:46:19;7.38;;;4.95;;
81591;SDS011;71014;53.394;6.724;2023-11-21T11:48:48;6.57;;;4.07;;
81591;SDS011;71014;53.394;6.724;2023-11-21T11:51:28;7.63;;;4.30;;
81591;SDS011;71014;53.394;6.724;2023-11-21T11:53:56;7.05;;;4.22;;
81591;SDS011;71014;53.394;6.724;2023-11-21T11:56:29;9.13;;;4.90;;
81591;SDS011;71014;53.394;6.724;2023-11-21T11:58:57;7.43;;;5.03;;
81591;SDS011;71014;53.394;6.724;2023-11-21T12:01:24;6.97;;;4.32;;
81591;SDS011;71014;53.394;6.724;2023-11-21T12:06:35;6.78;;;4.47;;
81591;SDS011;71014;53.394;6.724;2023-11-21T12:09:04;6.28;;;3.90;;
81591;SDS011;71014;53.394;6.724;2023-11-21T12:11:30;9.45;;;4.35;;
81591;SDS011;71014;53.394;6.724;2023-11-21T12:13:57;7.22;;;4.13;;
81591;SDS011;71014;53.394;6.724;2023-11-21T12:18:52;5.50;;;3.85;;
81591;SDS011;71014;53.394;6.724;2023-11-21T12:21:18;8.13;;;4.10;;
81591;SDS011;71014;53.394;6.724;2023-11-21T12:23:44;7.75;;;3.92;;
81591;SDS011;71014;53.394;6.724;2023-11-21T12:26:12;7.88;;;4.00;;
81591;SDS011;71014;53.394;6.724;2023-11-21T12:28:38;4.50;;;3.53;;
81591;SDS011;71014;53.394;6.724;2023-11-21T12:31:05;6.32;;;3.92;;
81591;SDS011;71014;53.394;6.724;2023-11-21T12:33:37;5.47;;;4.00;;
81591;SDS011;71014;53.394;6.724;2023-11-21T12:36:03;7.88;;;3.38;;
81591;SDS011;71014;53.394;6.724;2023-11-21T12:38:34;3.47;;;2.58;;
81591;SDS011;71014;53.394;6.724;2023-11-21T12:41:00;5.35;;;3.22;;
81591;SDS011;71014;53.394;6.724;2023-11-21T12:43:26;3.92;;;3.05;;
81591;SDS011;71014;53.394;6.724;2023-11-21T12:46:04;5.38;;;3.00;;
81591;SDS011;71014;53.394;6.724;2023-11-21T12:48:31;5.22;;;3.05;;
81591;SDS011;71014;53.394;6.724;2023-11-21T12:50:57;6.95;;;3.10;;
81591;SDS011;71014;53.394;6.724;2023-11-21T12:53:25;7.20;;;2.97;;
81591;SDS011;71014;53.394;6.724;2023-11-21T12:55:51;5.88;;;2.75;;
81591;SDS011;71014;53.394;6.724;2023-11-21T12:58:17;5.80;;;3.03;;
81591;SDS011;71014;53.394;6.724;2023-11-21T13:00:48;3.67;;;2.30;;
81591;SDS011;71014;53.394;6.724;2023-11-21T13:03:16;6.30;;;2.63;;
81591;SDS011;71014;53.394;6.724;2023-11-21T13:05:44;4.40;;;2.78;;
81591;SDS011;71014;53.394;6.724;2023-11-21T13:08:11;4.78;;;2.60;;
81591;SDS011;71014;53.394;6.724;2023-11-21T13:10:41;3.47;;;2.25;;
81591;SDS011;71014;53.394;6.724;2023-11-21T13:13:09;4.10;;;2.22;;
81591;SDS011;71014;53.394;6.724;2023-11-21T13:15:39;5.18;;;2.60;;
81591;SDS011;71014;53.394;6.724;2023-11-21T13:18:08;7.45;;;2.63;;
81591;SDS011;71014;53.394;6.724;2023-11-21T13:20:36;5.85;;;3.05;;
81591;SDS011;71014;53.394;6.724;2023-11-21T13:23:06;4.68;;;2.35;;
81591;SDS011;71014;53.394;6.724;2023-11-21T13:25:33;4.78;;;2.25;;
81591;SDS011;71014;53.394;6.724;2023-11-21T13:27:59;4.00;;;2.50;;
81591;SDS011;71014;53.394;6.724;2023-11-21T13:30:27;3.78;;;2.10;;
81591;SDS011;71014;53.394;6.724;2023-11-21T13:33:03;3.35;;;2.47;;
81591;SDS011;71014;53.394;6.724;2023-11-21T13:35:37;5.43;;;2.13;;
81591;SDS011;71014;53.394;6.724;2023-11-21T13:38:16;2.28;;;1.60;;
81591;SDS011;71014;53.394;6.724;2023-11-21T13:40:50;2.42;;;1.92;;
81591;SDS011;71014;53.394;6.724;2023-11-21T13:43:18;3.30;;;1.70;;
81591;SDS011;71014;53.394;6.724;2023-11-21T13:45:46;3.88;;;1.63;;
81591;SDS011;71014;53.394;6.724;2023-11-21T13:48:12;3.25;;;1.77;;
81591;SDS011;71014;53.394;6.724;2023-11-21T13:50:44;6.60;;;2.25;;
81591;SDS011;71014;53.394;6.724;2023-11-21T13:53:28;3.35;;;1.60;;
81591;SDS011;71014;53.394;6.724;2023-11-21T13:55:54;3.78;;;1.88;;
81591;SDS011;71014;53.394;6.724;2023-11-21T13:58:22;3.55;;;2.35;;
81591;SDS011;71014;53.394;6.724;2023-11-21T14:00:57;4.40;;;2.28;;
81591;SDS011;71014;53.394;6.724;2023-11-21T14:03:24;3.80;;;2.25;;
81591;SDS011;71014;53.394;6.724;2023-11-21T14:06:03;4.35;;;2.20;;
81591;SDS011;71014;53.394;6.724;2023-11-21T14:08:33;5.95;;;2.50;;
81591;SDS011;71014;53.394;6.724;2023-11-21T14:11:00;5.30;;;2.20;;
81591;SDS011;71014;53.394;6.724;2023-11-21T14:13:26;6.63;;;2.90;;
81591;SDS011;71014;53.394;6.724;2023-11-21T14:15:52;4.03;;;2.25;;
81591;SDS011;71014;53.394;6.724;2023-11-21T14:18:25;6.10;;;2.33;;
81591;SDS011;71014;53.394;6.724;2023-11-21T14:21:01;3.20;;;1.90;;
81591;SDS011;71014;53.394;6.724;2023-11-21T14:23:27;3.28;;;2.03;;
81591;SDS011;71014;53.394;6.724;2023-11-21T14:25:54;2.95;;;1.75;;
81591;SDS011;71014;53.394;6.724;2023-11-21T14:28:21;5.32;;;2.70;;
81591;SDS011;71014;53.394;6.724;2023-11-21T14:30:47;4.03;;;2.97;;
81591;SDS011;71014;53.394;6.724;2023-11-21T14:33:13;3.85;;;2.63;;
81591;SDS011;71014;53.394;6.724;2023-11-21T14:35:41;4.72;;;2.28;;
81591;SDS011;71014;53.394;6.724;2023-11-21T14:38:07;3.97;;;2.40;;
81591;SDS011;71014;53.394;6.724;2023-11-21T14:40:34;5.95;;;2.35;;
81591;SDS011;71014;53.394;6.724;2023-11-21T14:43:01;5.88;;;2.60;;
81591;SDS011;71014;53.394;6.724;2023-11-21T14:45:30;5.50;;;2.67;;
81591;SDS011;71014;53.394;6.724;2023-11-21T14:47:56;5.13;;;2.75;;
81591;SDS011;71014;53.394;6.724;2023-11-21T14:50:34;4.20;;;2.28;;
81591;SDS011;71014;53.394;6.724;2023-11-21T14:53:07;3.40;;;2.53;;
81591;SDS011;71014;53.394;6.724;2023-11-21T14:58:20;4.93;;;2.50;;
81591;SDS011;71014;53.394;6.724;2023-11-21T15:00:55;4.30;;;2.58;;
81591;SDS011;71014;53.394;6.724;2023-11-21T15:03:25;5.65;;;2.60;;
81591;SDS011;71014;53.394;6.724;2023-11-21T15:06:08;6.20;;;2.90;;
81591;SDS011;71014;53.394;6.724;2023-11-21T15:09:00;6.72;;;2.83;;
81591;SDS011;71014;53.394;6.724;2023-11-21T15:11:32;6.45;;;2.70;;
81591;SDS011;71014;53.394;6.724;2023-11-21T15:13:58;4.15;;;2.33;;
81591;SDS011;71014;53.394;6.724;2023-11-21T15:16:25;5.30;;;2.42;;